KNUW

Whidbey Island NAS / Ault Field Airport

Oak Harbor, Washington, USA
METAR KNUW 200056Z 16021G33KT 10SM BKN023 BKN035 OVC250 09/04 A2987 RMK AO2 PK WND 16034/0009 SLP113 T00940039 $
Observed Flight Rules
Jan-20 @ 00:56 UTC (28 minutes ago) Marginal Visual Flight Rules
Wind Visibility Clouds
160° at 21 knots
 Gusting to 33 knots
10 miles
  • Broken at 2,300' AGL
  • Broken at 3,500' AGL
  • Overcast at 25,000' AGL
Temperatures Readings
Current 9°C / 48°F
Dewpoint 4°C / 39°F
Humidity 71%
Altimeter 29.87" Hg
Pressure 1011.3 hPa
Elevation 14
METAR KNUW 200056Z 16021G33KT 10SM BKN023 BKN035 OVC250 09/04 A2987 RMK AO2 PK WND 16034/0009 SLP113 T00940039 $
Observed Flight Rules
Jan-20 @ 00:56 UTC
(28 minutes ago)
MVFR
Wind Visibility
160° at 21 knots
 Gusting to 33 knots
10 miles
Clouds
  • Broken at 2,300' AGL
  • Broken at 3,500' AGL
  • Overcast at 25,000' AGL
Temperature Dewpoint
9°C / 48°F 4°C / 39°F
Humidity Altimeter Pressure
71% 29.87" Hg 1011.3 hPa